sensor_id;sensor_type;location;lat;lon;timestamp;temperature;humidity
21302;DHT22;10810;48.270;9.996;2023-02-20T00:02:01;7.40;99.90
21302;DHT22;10810;48.270;9.996;2023-02-20T00:04:47;7.40;99.90
21302;DHT22;10810;48.270;9.996;2023-02-20T00:07:30;7.30;99.90
21302;DHT22;10810;48.270;9.996;2023-02-20T00:10:06;7.30;99.90
21302;DHT22;10810;48.270;9.996;2023-02-20T00:12:33;7.30;99.90
21302;DHT22;10810;48.270;9.996;2023-02-20T00:15:03;7.40;99.90
21302;DHT22;10810;48.270;9.996;2023-02-20T00:17:43;7.30;99.90
21302;DHT22;10810;48.270;9.996;2023-02-20T00:20:23;7.30;99.90
21302;DHT22;10810;48.270;9.996;2023-02-20T00:22:51;7.30;99.90
21302;DHT22;10810;48.270;9.996;2023-02-20T00:25:19;7.40;99.90
21302;DHT22;10810;48.270;9.996;2023-02-20T00:27:46;7.30;99.90
21302;DHT22;10810;48.270;9.996;2023-02-20T00:30:21;7.30;99.90
21302;DHT22;10810;48.270;9.996;2023-02-20T00:33:18;7.30;99.90
21302;DHT22;10810;48.270;9.996;2023-02-20T00:36:06;7.40;99.90
21302;DHT22;10810;48.270;9.996;2023-02-20T00:38:35;7.30;99.90
21302;DHT22;10810;48.270;9.996;2023-02-20T00:41:03;7.30;99.90
21302;DHT22;10810;48.270;9.996;2023-02-20T00:43:34;7.40;99.90
21302;DHT22;10810;48.270;9.996;2023-02-20T00:46:13;7.40;99.90
21302;DHT22;10810;48.270;9.996;2023-02-20T00:48:41;7.40;99.90
21302;DHT22;10810;48.270;9.996;2023-02-20T00:51:48;7.40;99.90
21302;DHT22;10810;48.270;9.996;2023-02-20T00:54:18;7.50;99.90
21302;DHT22;10810;48.270;9.996;2023-02-20T00:56:56;7.40;99.90
21302;DHT22;10810;48.270;9.996;2023-02-20T00:59:41;7.40;99.90
21302;DHT22;10810;48.270;9.996;2023-02-20T01:02:31;7.40;99.90
21302;DHT22;10810;48.270;9.996;2023-02-20T01:05:06;7.40;99.90
21302;DHT22;10810;48.270;9.996;2023-02-20T01:10:37;7.40;99.90
21302;DHT22;10810;48.270;9.996;2023-02-20T01:13:21;7.40;99.90
21302;DHT22;10810;48.270;9.996;2023-02-20T01:16:04;7.40;99.90
21302;DHT22;10810;48.270;9.996;2023-02-20T01:18:52;7.40;99.90
21302;DHT22;10810;48.270;9.996;2023-02-20T01:21:19;7.30;99.90
21302;DHT22;10810;48.270;9.996;2023-02-20T01:23:56;7.40;99.90
21302;DHT22;10810;48.270;9.996;2023-02-20T01:26:27;7.30;99.90
21302;DHT22;10810;48.270;9.996;2023-02-20T01:28:56;7.40;99.90
21302;DHT22;10810;48.270;9.996;2023-02-20T01:31:25;7.40;99.90
21302;DHT22;10810;48.270;9.996;2023-02-20T01:34:04;7.30;99.90
21302;DHT22;10810;48.270;9.996;2023-02-20T01:36:47;7.20;99.90
21302;DHT22;10810;48.270;9.996;2023-02-20T01:39:17;7.30;99.90
21302;DHT22;10810;48.270;9.996;2023-02-20T01:41:47;7.30;99.90
21302;DHT22;10810;48.270;9.996;2023-02-20T01:44:41;7.40;99.90
21302;DHT22;10810;48.270;9.996;2023-02-20T01:47:18;7.30;99.90
21302;DHT22;10810;48.270;9.996;2023-02-20T01:50:16;7.30;99.90
21302;DHT22;10810;48.270;9.996;2023-02-20T01:54:58;7.20;99.90
21302;DHT22;10810;48.270;9.996;2023-02-20T01:56:04;7.30;99.90
21302;DHT22;10810;48.270;9.996;2023-02-20T01:58:40;7.30;99.90
21302;DHT22;10810;48.270;9.996;2023-02-20T02:01:10;7.30;99.90
21302;DHT22;10810;48.270;9.996;2023-02-20T02:04:00;7.30;99.90
21302;DHT22;10810;48.270;9.996;2023-02-20T02:06:31;7.20;99.90
21302;DHT22;10810;48.270;9.996;2023-02-20T02:09:20;7.30;99.90
21302;DHT22;10810;48.270;9.996;2023-02-20T02:12:10;7.20;99.90
21302;DHT22;10810;48.270;9.996;2023-02-20T02:14:53;7.20;99.90
21302;DHT22;10810;48.270;9.996;2023-02-20T02:17:51;7.20;99.90
21302;DHT22;10810;48.270;9.996;2023-02-20T02:27:24;7.30;99.90
21302;DHT22;10810;48.270;9.996;2023-02-20T02:30:15;7.20;99.90
21302;DHT22;10810;48.270;9.996;2023-02-20T02:33:09;7.20;99.90
21302;DHT22;10810;48.270;9.996;2023-02-20T02:36:14;7.20;99.90
21302;DHT22;10810;48.270;9.996;2023-02-20T02:38:49;7.20;99.90
21302;DHT22;10810;48.270;9.996;2023-02-20T02:41:26;7.10;99.90
21302;DHT22;10810;48.270;9.996;2023-02-20T02:44:02;7.10;99.90
21302;DHT22;10810;48.270;9.996;2023-02-20T02:46:49;7.10;99.90
21302;DHT22;10810;48.270;9.996;2023-02-20T02:49:23;7.10;99.90
21302;DHT22;10810;48.270;9.996;2023-02-20T02:51:58;7.00;99.90
21302;DHT22;10810;48.270;9.996;2023-02-20T02:54:30;6.90;99.90
21302;DHT22;10810;48.270;9.996;2023-02-20T02:57:26;6.90;99.90
21302;DHT22;10810;48.270;9.996;2023-02-20T03:00:05;6.90;99.90
21302;DHT22;10810;48.270;9.996;2023-02-20T03:02:47;6.80;99.90
21302;DHT22;10810;48.270;9.996;2023-02-20T03:05:30;6.80;99.90
21302;DHT22;10810;48.270;9.996;2023-02-20T03:08:10;6.70;99.90
21302;DHT22;10810;48.270;9.996;2023-02-20T03:13:46;6.70;99.90
21302;DHT22;10810;48.270;9.996;2023-02-20T03:16:39;6.70;99.90
21302;DHT22;10810;48.270;9.996;2023-02-20T03:19:09;6.70;99.90
21302;DHT22;10810;48.270;9.996;2023-02-20T03:21:43;6.70;99.90
21302;DHT22;10810;48.270;9.996;2023-02-20T03:24:36;6.60;99.90
21302;DHT22;10810;48.270;9.996;2023-02-20T03:27:30;6.60;99.90
21302;DHT22;10810;48.270;9.996;2023-02-20T03:30:09;5.70;99.90
21302;DHT22;10810;48.270;9.996;2023-02-20T03:33:09;6.50;99.90
21302;DHT22;10810;48.270;9.996;2023-02-20T03:35:56;6.60;99.90
21302;DHT22;10810;48.270;9.996;2023-02-20T03:38:47;6.50;99.90
21302;DHT22;10810;48.270;9.996;2023-02-20T03:41:37;6.50;99.90
21302;DHT22;10810;48.270;9.996;2023-02-20T03:44:23;6.50;99.90
21302;DHT22;10810;48.270;9.996;2023-02-20T03:46:52;6.40;99.90
21302;DHT22;10810;48.270;9.996;2023-02-20T03:49:24;6.40;99.90
21302;DHT22;10810;48.270;9.996;2023-02-20T03:51:55;6.40;99.90
21302;DHT22;10810;48.270;9.996;2023-02-20T03:54:58;6.30;99.90
21302;DHT22;10810;48.270;9.996;2023-02-20T03:57:32;6.30;99.90
21302;DHT22;10810;48.270;9.996;2023-02-20T04:00:13;6.30;99.90
21302;DHT22;10810;48.270;9.996;2023-02-20T04:03:01;6.30;99.90
21302;DHT22;10810;48.270;9.996;2023-02-20T04:05:45;6.20;99.90
21302;DHT22;10810;48.270;9.996;2023-02-20T04:08:23;6.20;99.90
21302;DHT22;10810;48.270;9.996;2023-02-20T04:11:29;6.10;99.90
21302;DHT22;10810;48.270;9.996;2023-02-20T04:14:16;6.10;99.90
21302;DHT22;10810;48.270;9.996;2023-02-20T04:17:05;6.10;99.90
21302;DHT22;10810;48.270;9.996;2023-02-20T04:19:53;6.00;99.90
21302;DHT22;10810;48.270;9.996;2023-02-20T04:22:24;5.80;99.90
21302;DHT22;10810;48.270;9.996;2023-02-20T04:24:57;5.70;99.90
21302;DHT22;10810;48.270;9.996;2023-02-20T04:27:31;5.60;99.90
21302;DHT22;10810;48.270;9.996;2023-02-20T04:30:17;5.50;99.90
21302;DHT22;10810;48.270;9.996;2023-02-20T04:32:49;5.40;99.90
21302;DHT22;10810;48.270;9.996;2023-02-20T04:35:28;5.40;99.90
21302;DHT22;10810;48.270;9.996;2023-02-20T04:37:55;5.30;99.90
21302;DHT22;10810;48.270;9.996;2023-02-20T04:40:24;5.30;99.90
21302;DHT22;10810;48.270;9.996;2023-02-20T04:43:18;5.30;99.90
21302;DHT22;10810;48.270;9.996;2023-02-20T04:45:50;5.20;99.90
21302;DHT22;10810;48.270;9.996;2023-02-20T04:48:34;5.20;99.90
21302;DHT22;10810;48.270;9.996;2023-02-20T04:51:39;5.10;99.90
21302;DHT22;10810;48.270;9.996;2023-02-20T04:54:05;5.10;99.90
21302;DHT22;10810;48.270;9.996;2023-02-20T04:56:32;5.10;99.90
21302;DHT22;10810;48.270;9.996;2023-02-20T04:59:14;5.10;99.90
21302;DHT22;10810;48.270;9.996;2023-02-20T05:02:00;5.10;99.90
21302;DHT22;10810;48.270;9.996;2023-02-20T05:04:44;5.10;99.90
21302;DHT22;10810;48.270;9.996;2023-02-20T05:07:25;5.10;99.90
21302;DHT22;10810;48.270;9.996;2023-02-20T05:09:58;5.10;99.90
21302;DHT22;10810;48.270;9.996;2023-02-20T05:12:35;5.00;99.90
21302;DHT22;10810;48.270;9.996;2023-02-20T05:15:03;4.90;99.90
21302;DHT22;10810;48.270;9.996;2023-02-20T05:18:06;5.00;99.90
21302;DHT22;10810;48.270;9.996;2023-02-20T05:20:24;5.20;99.90
21302;DHT22;10810;48.270;9.996;2023-02-20T05:23:12;4.80;99.90
21302;DHT22;10810;48.270;9.996;2023-02-20T05:25:41;4.70;99.90
21302;DHT22;10810;48.270;9.996;2023-02-20T05:28:16;4.70;99.90
21302;DHT22;10810;48.270;9.996;2023-02-20T05:30:56;4.60;99.90
21302;DHT22;10810;48.270;9.996;2023-02-20T05:33:47;4.50;99.90
21302;DHT22;10810;48.270;9.996;2023-02-20T05:36:16;4.60;99.90
21302;DHT22;10810;48.270;9.996;2023-02-20T05:38:43;4.80;99.90
21302;DHT22;10810;48.270;9.996;2023-02-20T05:41:15;4.40;99.90
21302;DHT22;10810;48.270;9.996;2023-02-20T05:43:46;4.40;99.90
21302;DHT22;10810;48.270;9.996;2023-02-20T05:46:38;4.20;99.90
21302;DHT22;10810;48.270;9.996;2023-02-20T05:49:10;4.20;99.90
21302;DHT22;10810;48.270;9.996;2023-02-20T05:51:51;4.10;99.90
21302;DHT22;10810;48.270;9.996;2023-02-20T05:54:44;4.10;99.90
21302;DHT22;10810;48.270;9.996;2023-02-20T05:57:19;4.10;99.90
21302;DHT22;10810;48.270;9.996;2023-02-20T05:59:50;4.20;99.90
21302;DHT22;10810;48.270;9.996;2023-02-20T06:02:17;4.20;99.90
21302;DHT22;10810;48.270;9.996;2023-02-20T06:05:02;4.30;99.90
21302;DHT22;10810;48.270;9.996;2023-02-20T06:07:32;4.30;99.90
21302;DHT22;10810;48.270;9.996;2023-02-20T06:10:01;4.40;99.90
21302;DHT22;10810;48.270;9.996;2023-02-20T06:12:30;4.40;99.90
21302;DHT22;10810;48.270;9.996;2023-02-20T06:14:57;4.50;99.90
21302;DHT22;10810;48.270;9.996;2023-02-20T06:17:30;4.40;99.90
21302;DHT22;10810;48.270;9.996;2023-02-20T06:20:16;4.40;99.90
21302;DHT22;10810;48.270;9.996;2023-02-20T06:22:57;4.40;99.90
21302;DHT22;10810;48.270;9.996;2023-02-20T06:25:38;4.30;99.90
21302;DHT22;10810;48.270;9.996;2023-02-20T06:28:06;4.20;99.90
21302;DHT22;10810;48.270;9.996;2023-02-20T06:33:15;4.30;99.90
21302;DHT22;10810;48.270;9.996;2023-02-20T06:35:53;4.20;99.90
21302;DHT22;10810;48.270;9.996;2023-02-20T06:38:26;4.30;99.90
21302;DHT22;10810;48.270;9.996;2023-02-20T06:40:55;4.30;99.90
21302;DHT22;10810;48.270;9.996;2023-02-20T06:43:24;4.30;99.90
21302;DHT22;10810;48.270;9.996;2023-02-20T06:45:54;4.50;99.90
21302;DHT22;10810;48.270;9.996;2023-02-20T06:48:21;4.40;99.90
21302;DHT22;10810;48.270;9.996;2023-02-20T06:50:58;4.50;99.90
21302;DHT22;10810;48.270;9.996;2023-02-20T06:53:30;4.60;99.90
21302;DHT22;10810;48.270;9.996;2023-02-20T06:56:08;4.10;99.90
21302;DHT22;10810;48.270;9.996;2023-02-20T06:58:53;4.80;99.90
21302;DHT22;10810;48.270;9.996;2023-02-20T07:01:28;4.90;99.90
21302;DHT22;10810;48.270;9.996;2023-02-20T07:03:59;5.00;99.90
21302;DHT22;10810;48.270;9.996;2023-02-20T07:06:35;5.10;99.90
21302;DHT22;10810;48.270;9.996;2023-02-20T07:09:17;5.10;99.90
21302;DHT22;10810;48.270;9.996;2023-02-20T07:11:45;5.00;99.90
21302;DHT22;10810;48.270;9.996;2023-02-20T07:14:25;5.00;99.90
21302;DHT22;10810;48.270;9.996;2023-02-20T07:16:55;5.00;99.90
21302;DHT22;10810;48.270;9.996;2023-02-20T07:19:26;5.00;99.90
21302;DHT22;10810;48.270;9.996;2023-02-20T07:22:00;5.00;99.90
21302;DHT22;10810;48.270;9.996;2023-02-20T07:24:39;5.10;99.90
21302;DHT22;10810;48.270;9.996;2023-02-20T07:27:28;5.20;99.90
21302;DHT22;10810;48.270;9.996;2023-02-20T07:30:07;5.20;99.90
21302;DHT22;10810;48.270;9.996;2023-02-20T07:32:34;5.30;99.90
21302;DHT22;10810;48.270;9.996;2023-02-20T07:35:03;5.20;99.90
21302;DHT22;10810;48.270;9.996;2023-02-20T07:37:49;5.30;99.90
21302;DHT22;10810;48.270;9.996;2023-02-20T07:40:22;5.30;99.90
21302;DHT22;10810;48.270;9.996;2023-02-20T07:42:54;5.40;99.90
21302;DHT22;10810;48.270;9.996;2023-02-20T07:45:21;5.40;99.90
21302;DHT22;10810;48.270;9.996;2023-02-20T07:47:57;5.50;99.90
21302;DHT22;10810;48.270;9.996;2023-02-20T07:50:30;5.50;99.90
21302;DHT22;10810;48.270;9.996;2023-02-20T07:53:05;5.70;99.90
21302;DHT22;10810;48.270;9.996;2023-02-20T07:55:34;5.70;99.90
21302;DHT22;10810;48.270;9.996;2023-02-20T07:58:01;5.80;99.90
21302;DHT22;10810;48.270;9.996;2023-02-20T08:00:48;5.80;99.90
21302;DHT22;10810;48.270;9.996;2023-02-20T08:03:19;5.90;99.90
21302;DHT22;10810;48.270;9.996;2023-02-20T08:05:46;5.90;99.90
21302;DHT22;10810;48.270;9.996;2023-02-20T08:08:46;6.00;99.90
21302;DHT22;10810;48.270;9.996;2023-02-20T08:11:18;6.00;99.90
21302;DHT22;10810;48.270;9.996;2023-02-20T08:13:50;6.10;99.90
21302;DHT22;10810;48.270;9.996;2023-02-20T08:16:34;6.10;99.90
21302;DHT22;10810;48.270;9.996;2023-02-20T08:19:04;6.10;99.90
21302;DHT22;10810;48.270;9.996;2023-02-20T08:21:40;6.20;99.90
21302;DHT22;10810;48.270;9.996;2023-02-20T08:24:47;6.30;99.90
21302;DHT22;10810;48.270;9.996;2023-02-20T08:27:40;6.30;99.90
21302;DHT22;10810;48.270;9.996;2023-02-20T08:30:15;6.40;99.90
21302;DHT22;10810;48.270;9.996;2023-02-20T08:33:02;6.60;99.90
21302;DHT22;10810;48.270;9.996;2023-02-20T08:35:31;6.60;99.90
21302;DHT22;10810;48.270;9.996;2023-02-20T08:38:29;6.20;99.90
21302;DHT22;10810;48.270;9.996;2023-02-20T08:41:01;6.80;99.90
21302;DHT22;10810;48.270;9.996;2023-02-20T08:43:29;6.90;99.90
21302;DHT22;10810;48.270;9.996;2023-02-20T08:45:59;7.00;99.90
21302;DHT22;10810;48.270;9.996;2023-02-20T08:48:26;7.00;99.90
21302;DHT22;10810;48.270;9.996;2023-02-20T08:50:54;7.10;99.90
21302;DHT22;10810;48.270;9.996;2023-02-20T08:53:23;7.20;99.90
21302;DHT22;10810;48.270;9.996;2023-02-20T08:55:51;7.30;99.90
21302;DHT22;10810;48.270;9.996;2023-02-20T08:58:23;7.30;99.90
21302;DHT22;10810;48.270;9.996;2023-02-20T09:00:58;7.40;99.90
21302;DHT22;10810;48.270;9.996;2023-02-20T09:03:25;7.50;99.90
21302;DHT22;10810;48.270;9.996;2023-02-20T09:05:54;7.60;99.90
21302;DHT22;10810;48.270;9.996;2023-02-20T09:08:29;7.50;99.90
21302;DHT22;10810;48.270;9.996;2023-02-20T09:11:16;7.60;99.90
21302;DHT22;10810;48.270;9.996;2023-02-20T09:16:51;7.80;99.90
21302;DHT22;10810;48.270;9.996;2023-02-20T09:19:29;7.80;99.90
21302;DHT22;10810;48.270;9.996;2023-02-20T09:22:05;7.80;99.90
21302;DHT22;10810;48.270;9.996;2023-02-20T09:24:38;7.90;99.90
21302;DHT22;10810;48.270;9.996;2023-02-20T09:27:06;8.00;99.90
21302;DHT22;10810;48.270;9.996;2023-02-20T09:29:42;8.10;99.90
21302;DHT22;10810;48.270;9.996;2023-02-20T09:32:29;8.20;99.90
21302;DHT22;10810;48.270;9.996;2023-02-20T09:35:08;8.20;99.90
21302;DHT22;10810;48.270;9.996;2023-02-20T09:38:14;8.40;99.90
21302;DHT22;10810;48.270;9.996;2023-02-20T09:42:18;8.70;99.90
21302;DHT22;10810;48.270;9.996;2023-02-20T09:44:20;8.50;99.90
21302;DHT22;10810;48.270;9.996;2023-02-20T09:47:55;7.50;99.90
21302;DHT22;10810;48.270;9.996;2023-02-20T09:50:59;8.70;99.90
21302;DHT22;10810;48.270;9.996;2023-02-20T09:54:13;9.00;99.90
21302;DHT22;10810;48.270;9.996;2023-02-20T10:00:29;8.00;99.90
21302;DHT22;10810;48.270;9.996;2023-02-20T10:03:16;8.90;99.90
21302;DHT22;10810;48.270;9.996;2023-02-20T10:09:12;9.20;99.90
21302;DHT22;10810;48.270;9.996;2023-02-20T10:11:49;9.30;99.90
21302;DHT22;10810;48.270;9.996;2023-02-20T10:14:47;9.30;99.90
21302;DHT22;10810;48.270;9.996;2023-02-20T10:17:24;9.40;99.90
21302;DHT22;10810;48.270;9.996;2023-02-20T10:19:59;9.40;99.90
21302;DHT22;10810;48.270;9.996;2023-02-20T10:22:32;9.50;99.90
21302;DHT22;10810;48.270;9.996;2023-02-20T10:25:36;9.50;99.90
21302;DHT22;10810;48.270;9.996;2023-02-20T10:28:10;9.70;99.90
21302;DHT22;10810;48.270;9.996;2023-02-20T10:34:00;9.70;99.90
21302;DHT22;10810;48.270;9.996;2023-02-20T10:36:38;9.70;99.90
21302;DHT22;10810;48.270;9.996;2023-02-20T10:39:37;9.80;99.90
21302;DHT22;10810;48.270;9.996;2023-02-20T10:42:13;9.90;99.90
21302;DHT22;10810;48.270;9.996;2023-02-20T10:49:48;9.40;99.90
21302;DHT22;10810;48.270;9.996;2023-02-20T10:55:03;10.40;99.90
21302;DHT22;10810;48.270;9.996;2023-02-20T10:58:43;10.40;99.90
21302;DHT22;10810;48.270;9.996;2023-02-20T11:01:14;10.40;99.90
21302;DHT22;10810;48.270;9.996;2023-02-20T11:04:00;10.40;99.90
21302;DHT22;10810;48.270;9.996;2023-02-20T11:06:58;10.70;99.90
21302;DHT22;10810;48.270;9.996;2023-02-20T11:09:46;10.60;99.90
21302;DHT22;10810;48.270;9.996;2023-02-20T11:12:30;10.60;99.90
21302;DHT22;10810;48.270;9.996;2023-02-20T11:18:32;10.80;99.90
21302;DHT22;10810;48.270;9.996;2023-02-20T11:21:36;10.90;99.90
21302;DHT22;10810;48.270;9.996;2023-02-20T11:24:26;10.90;99.90
21302;DHT22;10810;48.270;9.996;2023-02-20T11:26:59;11.00;99.90
21302;DHT22;10810;48.270;9.996;2023-02-20T11:29:36;11.00;99.90
21302;DHT22;10810;48.270;9.996;2023-02-20T11:32:35;11.10;99.90
21302;DHT22;10810;48.270;9.996;2023-02-20T11:35:27;11.20;99.90
21302;DHT22;10810;48.270;9.996;2023-02-20T11:38:36;11.20;99.90
21302;DHT22;10810;48.270;9.996;2023-02-20T11:41:27;11.20;99.90
21302;DHT22;10810;48.270;9.996;2023-02-20T11:44:20;11.30;99.90
21302;DHT22;10810;48.270;9.996;2023-02-20T11:47:20;11.50;99.90
21302;DHT22;10810;48.270;9.996;2023-02-20T11:50:09;11.50;99.90
21302;DHT22;10810;48.270;9.996;2023-02-20T11:53:05;11.60;99.90
21302;DHT22;10810;48.270;9.996;2023-02-20T11:55:39;11.70;99.90
21302;DHT22;10810;48.270;9.996;2023-02-20T11:58:23;11.70;99.90
21302;DHT22;10810;48.270;9.996;2023-02-20T12:01:30;11.80;99.90
21302;DHT22;10810;48.270;9.996;2023-02-20T12:04:18;11.80;99.90
21302;DHT22;10810;48.270;9.996;2023-02-20T12:07:08;11.80;99.90
21302;DHT22;10810;48.270;9.996;2023-02-20T12:10:00;11.90;99.90
21302;DHT22;10810;48.270;9.996;2023-02-20T12:12:34;11.90;99.90
21302;DHT22;10810;48.270;9.996;2023-02-20T12:15:19;12.00;99.90
21302;DHT22;10810;48.270;9.996;2023-02-20T12:20:56;12.00;99.90
21302;DHT22;10810;48.270;9.996;2023-02-20T12:23:42;12.10;99.90
21302;DHT22;10810;48.270;9.996;2023-02-20T12:26:31;12.20;99.90
21302;DHT22;10810;48.270;9.996;2023-02-20T12:29:21;12.20;99.90
21302;DHT22;10810;48.270;9.996;2023-02-20T12:35:19;12.30;99.90
21302;DHT22;10810;48.270;9.996;2023-02-20T12:38:18;12.40;99.90
21302;DHT22;10810;48.270;9.996;2023-02-20T12:41:13;12.60;99.90
21302;DHT22;10810;48.270;9.996;2023-02-20T12:43:57;12.60;99.90
21302;DHT22;10810;48.270;9.996;2023-02-20T12:46:40;12.80;99.90
21302;DHT22;10810;48.270;9.996;2023-02-20T12:49:48;12.80;99.90
21302;DHT22;10810;48.270;9.996;2023-02-20T12:52:37;12.90;99.90
21302;DHT22;10810;48.270;9.996;2023-02-20T12:55:34;13.00;99.90
21302;DHT22;10810;48.270;9.996;2023-02-20T12:58:15;13.20;99.10
21302;DHT22;10810;48.270;9.996;2023-02-20T13:01:02;13.10;98.80
21302;DHT22;10810;48.270;9.996;2023-02-20T13:04:28;13.20;99.80
21302;DHT22;10810;48.270;9.996;2023-02-20T13:07:04;13.30;99.20
21302;DHT22;10810;48.270;9.996;2023-02-20T13:10:19;13.50;98.90
21302;DHT22;10810;48.270;9.996;2023-02-20T13:12:39;13.50;98.90
21302;DHT22;10810;48.270;9.996;2023-02-20T13:15:23;13.60;97.90
21302;DHT22;10810;48.270;9.996;2023-02-20T13:18:02;13.60;96.70
21302;DHT22;10810;48.270;9.996;2023-02-20T13:20:48;13.70;96.80
21302;DHT22;10810;48.270;9.996;2023-02-20T13:23:29;13.70;95.30
21302;DHT22;10810;48.270;9.996;2023-02-20T13:29:24;13.90;95.00
21302;DHT22;10810;48.270;9.996;2023-02-20T13:32:24;13.90;94.70
21302;DHT22;10810;48.270;9.996;2023-02-20T13:35:37;14.20;97.20
21302;DHT22;10810;48.270;9.996;2023-02-20T13:38:11;14.00;94.70
21302;DHT22;10810;48.270;9.996;2023-02-20T13:41:04;13.50;94.10
21302;DHT22;10810;48.270;9.996;2023-02-20T13:43:35;14.20;93.10
21302;DHT22;10810;48.270;9.996;2023-02-20T13:52:42;14.20;91.60
21302;DHT22;10810;48.270;9.996;2023-02-20T13:55:23;14.20;90.20
21302;DHT22;10810;48.270;9.996;2023-02-20T13:58:10;14.30;91.20
21302;DHT22;10810;48.270;9.996;2023-02-20T14:00:48;14.40;90.20
21302;DHT22;10810;48.270;9.996;2023-02-20T14:03:36;14.50;90.50
21302;DHT22;10810;48.270;9.996;2023-02-20T14:06:17;14.60;92.10
21302;DHT22;10810;48.270;9.996;2023-02-20T14:09:31;14.60;90.80
21302;DHT22;10810;48.270;9.996;2023-02-20T14:12:26;14.70;90.70
21302;DHT22;10810;48.270;9.996;2023-02-20T14:15:04;14.80;91.50
21302;DHT22;10810;48.270;9.996;2023-02-20T14:17:36;14.90;85.60
21302;DHT22;10810;48.270;9.996;2023-02-20T14:20:19;14.80;88.40
21302;DHT22;10810;48.270;9.996;2023-02-20T14:23:07;14.80;86.40
21302;DHT22;10810;48.270;9.996;2023-02-20T14:25:36;14.80;86.80
21302;DHT22;10810;48.270;9.996;2023-02-20T14:28:09;14.80;84.70
21302;DHT22;10810;48.270;9.996;2023-02-20T14:31:16;14.90;89.20
21302;DHT22;10810;48.270;9.996;2023-02-20T14:33:47;15.00;87.10
21302;DHT22;10810;48.270;9.996;2023-02-20T14:36:56;15.00;86.00
21302;DHT22;10810;48.270;9.996;2023-02-20T14:39:43;15.00;85.10
21302;DHT22;10810;48.270;9.996;2023-02-20T14:45:26;14.90;86.00
21302;DHT22;10810;48.270;9.996;2023-02-20T14:48:00;14.80;90.40
21302;DHT22;10810;48.270;9.996;2023-02-20T14:51:04;14.80;89.70
21302;DHT22;10810;48.270;9.996;2023-02-20T14:53:37;14.90;86.70
21302;DHT22;10810;48.270;9.996;2023-02-20T14:56:12;14.80;87.30
21302;DHT22;10810;48.270;9.996;2023-02-20T14:58:40;14.70;88.40
21302;DHT22;10810;48.270;9.996;2023-02-20T15:01:17;14.80;90.20
21302;DHT22;10810;48.270;9.996;2023-02-20T15:03:58;14.90;89.20
21302;DHT22;10810;48.270;9.996;2023-02-20T15:06:28;15.00;84.40
21302;DHT22;10810;48.270;9.996;2023-02-20T15:09:03;14.90;85.80
21302;DHT22;10810;48.270;9.996;2023-02-20T15:11:45;14.90;87.60
21302;DHT22;10810;48.270;9.996;2023-02-20T15:14:42;14.80;86.20
21302;DHT22;10810;48.270;9.996;2023-02-20T15:17:21;14.80;90.50
21302;DHT22;10810;48.270;9.996;2023-02-20T15:19:54;14.90;87.00
21302;DHT22;10810;48.270;9.996;2023-02-20T15:22:27;14.80;90.50
21302;DHT22;10810;48.270;9.996;2023-02-20T15:25:26;14.80;89.10
21302;DHT22;10810;48.270;9.996;2023-02-20T15:28:26;14.60;87.30
21302;DHT22;10810;48.270;9.996;2023-02-20T15:31:13;14.50;88.60
21302;DHT22;10810;48.270;9.996;2023-02-20T15:33:55;14.50;90.00
21302;DHT22;10810;48.270;9.996;2023-02-20T15:36:58;14.40;89.70
21302;DHT22;10810;48.270;9.996;2023-02-20T15:39:37;14.40;91.70
21302;DHT22;10810;48.270;9.996;2023-02-20T15:42:17;14.30;91.30
21302;DHT22;10810;48.270;9.996;2023-02-20T15:44:55;14.20;91.60
21302;DHT22;10810;48.270;9.996;2023-02-20T15:47:34;14.10;92.50
21302;DHT22;10810;48.270;9.996;2023-02-20T15:50:19;13.80;92.90
21302;DHT22;10810;48.270;9.996;2023-02-20T15:52:53;13.60;93.00
21302;DHT22;10810;48.270;9.996;2023-02-20T15:55:37;13.50;95.00
21302;DHT22;10810;48.270;9.996;2023-02-20T15:58:44;13.40;95.70
21302;DHT22;10810;48.270;9.996;2023-02-20T16:01:23;13.10;95.90
21302;DHT22;10810;48.270;9.996;2023-02-20T16:04:12;13.10;97.10
21302;DHT22;10810;48.270;9.996;2023-02-20T16:06:43;13.10;96.90
21302;DHT22;10810;48.270;9.996;2023-02-20T16:09:50;12.90;97.40
21302;DHT22;10810;48.270;9.996;2023-02-20T16:12:37;11.80;97.30
21302;DHT22;10810;48.270;9.996;2023-02-20T16:15:05;12.60;97.50
21302;DHT22;10810;48.270;9.996;2023-02-20T16:17:33;12.50;98.20
21302;DHT22;10810;48.270;9.996;2023-02-20T16:20:23;12.40;98.50
21302;DHT22;10810;48.270;9.996;2023-02-20T16:23:23;12.40;99.60
21302;DHT22;10810;48.270;9.996;2023-02-20T16:26:03;12.20;99.00
21302;DHT22;10810;48.270;9.996;2023-02-20T16:28:32;12.20;99.20
21302;DHT22;10810;48.270;9.996;2023-02-20T16:31:32;12.30;99.80
21302;DHT22;10810;48.270;9.996;2023-02-20T16:34:40;12.10;99.90
21302;DHT22;10810;48.270;9.996;2023-02-20T16:37:21;12.00;99.80
21302;DHT22;10810;48.270;9.996;2023-02-20T16:40:00;12.00;99.90
21302;DHT22;10810;48.270;9.996;2023-02-20T16:43:10;12.00;99.90
21302;DHT22;10810;48.270;9.996;2023-02-20T16:45:38;11.90;99.90
21302;DHT22;10810;48.270;9.996;2023-02-20T16:48:23;11.90;99.90
21302;DHT22;10810;48.270;9.996;2023-02-20T17:44:14;8.90;99.90
21302;DHT22;10810;48.270;9.996;2023-02-20T17:47:03;9.00;99.90
21302;DHT22;10810;48.270;9.996;2023-02-20T17:51:16;8.70;99.90
21302;DHT22;10810;48.270;9.996;2023-02-20T17:57:00;8.40;99.90
21302;DHT22;10810;48.270;9.996;2023-02-20T18:00:09;8.50;99.90
21302;DHT22;10810;48.270;9.996;2023-02-20T18:21:21;8.40;99.90
21302;DHT22;10810;48.270;9.996;2023-02-20T18:34:11;7.90;99.90
21302;DHT22;10810;48.270;9.996;2023-02-20T18:38:20;8.20;99.90
21302;DHT22;10810;48.270;9.996;2023-02-20T18:40:36;8.10;99.90
21302;DHT22;10810;48.270;9.996;2023-02-20T18:43:32;7.80;99.90
21302;DHT22;10810;48.270;9.996;2023-02-20T19:08:46;7.60;99.90
21302;DHT22;10810;48.270;9.996;2023-02-20T19:20:59;6.20;99.90
21302;DHT22;10810;48.270;9.996;2023-02-20T19:27:00;7.30;99.90
21302;DHT22;10810;48.270;9.996;2023-02-20T19:33:35;7.10;99.90
21302;DHT22;10810;48.270;9.996;2023-02-20T19:39:52;6.20;99.90
21302;DHT22;10810;48.270;9.996;2023-02-20T20:17:15;6.30;99.90
21302;DHT22;10810;48.270;9.996;2023-02-20T20:30:14;6.10;99.90
21302;DHT22;10810;48.270;9.996;2023-02-20T20:47:03;6.90;99.90
21302;DHT22;10810;48.270;9.996;2023-02-20T20:49:33;6.90;99.90
21302;DHT22;10810;48.270;9.996;2023-02-20T20:52:02;6.90;99.90
21302;DHT22;10810;48.270;9.996;2023-02-20T20:54:35;6.90;99.90
21302;DHT22;10810;48.270;9.996;2023-02-20T20:57:18;7.00;99.90
21302;DHT22;10810;48.270;9.996;2023-02-20T20:59:50;7.10;99.90
21302;DHT22;10810;48.270;9.996;2023-02-20T21:02:32;7.10;99.90
21302;DHT22;10810;48.270;9.996;2023-02-20T21:04:59;7.30;99.90
21302;DHT22;10810;48.270;9.996;2023-02-20T21:07:37;7.20;99.90
21302;DHT22;10810;48.270;9.996;2023-02-20T21:12:56;7.00;99.90
21302;DHT22;10810;48.270;9.996;2023-02-20T21:15:26;7.30;99.90
21302;DHT22;10810;48.270;9.996;2023-02-20T21:18:17;7.30;99.90
21302;DHT22;10810;48.270;9.996;2023-02-20T21:21:04;7.30;99.90
21302;DHT22;10810;48.270;9.996;2023-02-20T21:24:01;7.30;99.90
21302;DHT22;10810;48.270;9.996;2023-02-20T21:26:36;7.30;99.90